Warning: Javascript must be enabled to use all the features on this page!


Page Loading - Please Wait...

* We've detected you're using a mobile device. Find our mobile dedicated web site here.
Click to hideNews Bulletins
* IMPORTANT: Next Generation Station Page

USGS 04189260 Blanchard River at Ottawa OH

PROVISIONAL DATA SUBJECT TO REVISION

Click to hidestation-specific text
Funding for this site is provided by:

 

> WaterNow – get the latest gage data from your mobile phone or email.
> Rating Information

Want to learn more about areas near this gage that are inundated during flooding? See the USGS flood-inundation mapper.
Available Parameters Available Period
All 2 Available Parameters for this site
  
00060 Discharge 2009-10-01  2019-05-19
00065 Gage height 2009-10-01  2019-05-19

Graph
Graph w/ stats
Graph w/o stats
Graph w/ (up to 3) parms
Table
Tab-separated
Days  (7)
 

  -- or --
Begin date
 

End date
 

Summary of all available data for this site
Instantaneous-data availability statement
Gage height, feet
TIMEMay 12May 13May 14May 15May 16May 17May 18May 19
00:00 EDT8.43P  8.23P  15.49P  16.39P  12.55P  9.87P  11.96P  10.86P  
00:30 EDT8.42P  8.24P  15.64P  16.34P  12.46P  9.84P  11.95P  10.87P  
01:00 EDT8.41P  8.24P  15.77P  16.29P  12.38P  9.83P  11.93P  10.87P  
01:30 EDT8.40P  8.25P  15.91P  16.24P  12.29P  9.82P  11.91P  10.87P  
02:00 EDT8.39P  8.26P  16.01P  16.19P  12.21P  9.81P  11.87P  10.88P  
02:30 EDT8.38P  8.26P  16.12P  16.14P  12.12P  9.79P  11.83P  10.88P  
03:00 EDT8.37P  8.27P  16.22P  16.08P  12.04P  9.82P  11.79P  10.89P  
03:30 EDT8.36P  8.28P  16.30P  16.03P  11.96P  9.86P  11.74P  10.90P  
04:00 EDT8.35P  8.29P  16.38P  15.97P  11.88P  9.87P  11.69P  10.91P  
04:30 EDT8.35P  8.30P  16.45P  15.91P  11.81P  9.88P  11.66P  10.92P  
05:00 EDT8.34P  8.31P  16.52P  15.85P  11.73P  9.89P  11.61P  10.93P  
05:30 EDT8.34P  8.33P  16.57P  15.79P  11.66P  9.89P  11.57P  10.94P  
06:00 EDT8.33P  8.36P  16.64P  15.73P  11.58P  9.90P  11.53P  10.95P  
06:30 EDT8.32P  8.40P  16.69P  15.66P  11.51P  9.90P  11.49P  10.96P  
07:00 EDT8.32P  8.47P  16.73P  15.59P  11.44P  9.90P  11.46P   
07:30 EDT8.31P  8.56P  16.77P  15.52P  11.38P  9.91P  11.43P   
08:00 EDT8.31P  8.68P  16.80P  15.45P  11.31P  9.92P  11.40P   
08:30 EDT8.30P  8.79P  16.84P  15.38P  11.25P  9.93P  11.37P   
09:00 EDT8.29P  8.92P  16.87P  15.30P  11.19P  9.94P  11.34P   
09:30 EDT8.29P  9.06P  16.89P  15.22P  11.12P  9.96P  11.31P   
10:00 EDT8.28P  9.23P  16.91P  15.14P  11.07P  9.98P  11.28P   
10:30 EDT8.27P  9.41P  16.92P  15.06P  11.01P  10.00P  11.25P   
11:00 EDT8.26P  9.60P  16.94P  14.98P  10.96P  10.02P  11.21P   
11:30 EDT8.26P  9.80P  16.95P  14.89P  10.90P  10.04P  11.18P   
12:00 EDT8.25P  10.02P  16.96P  14.81P  10.85P  10.06P  11.14P   
12:30 EDT8.24P  10.27P  16.97P  14.72P  10.80P  10.09P  11.11P   
13:00 EDT8.23P  10.51P  16.97P  14.63P  10.75P  10.11P  11.08P   
13:30 EDT8.23P  10.79P  16.97P  14.54P  10.70P  10.15P  11.05P   
14:00 EDT8.22P  11.04P  16.97P  14.44P  10.64P  10.20P  11.03P   
14:30 EDT8.21P  11.29P  16.97P  14.35P  10.60P  10.25P  11.00P   
15:00 EDT8.20P  11.54P  16.96P  14.25P  10.55P  10.32P  10.97P   
15:30 EDT8.20P  11.78P  16.95P  14.16P  10.51P  10.40P  10.96P   
16:00 EDT8.20P  12.03P  16.93P  14.06P  10.46P  10.49P  10.95P   
16:30 EDT8.19P  12.28P  16.92P  13.97P  10.42P  10.58P  10.95P   
17:00 EDT8.19P  12.55P  16.90P  13.87P  10.37P  10.69P  10.93P   
17:30 EDT8.19P  12.80P  16.87P  13.77P  10.33P  10.80P  10.93P   
18:00 EDT8.18P  13.06P  16.85P  13.68P  10.29P  10.93P  10.93P   
18:30 EDT8.18P  13.30P  16.82P  13.58P  10.25P  11.06P  10.92P   
19:00 EDT8.18P  13.53P  16.79P  13.48P  10.21P  11.19P  10.91P   
19:30 EDT8.18P  13.76P  16.75P  13.39P  10.18P  11.33P  10.91P   
20:00 EDT8.19P  13.98P  16.72P  13.29P  10.13P  11.46P  10.90P   
20:30 EDT8.19P  14.19P  16.68P  13.20P  10.09P  11.58P  10.89P   
21:00 EDT8.20P  14.40P  16.65P  13.10P  10.06P  11.68P  10.88P   
21:30 EDT8.20P  14.61P  16.60P  13.01P  10.02P  11.77P  10.88P   
22:00 EDT8.20P  14.80P  16.56P  12.92P  9.99P  11.85P  10.87P   
22:30 EDT8.21P  14.99P  16.53P  12.82P  9.96P  11.90P  10.87P   
23:00 EDT8.22P  15.16P  16.48P  12.73P  9.92P  11.93P  10.86P   
23:30 EDT8.22P  15.33P  16.44P  12.64P  9.89P  11.95P  10.86P   
COUNT4848484848484814
MAX8.4315.3316.9716.3912.5511.9511.9610.96
MIN8.188.2315.4912.649.899.7910.8610.86

Explanation
  P  Provisional data subject to revision.